Terminal Aerodrome Forecast
Issued by NWS Des Moines, IA

Home | Current Version | Previous Version | Text Only | Print | Product List | Glossary On
Versions: 1 2 3 4 5 6 7 8 9 10 11 12 13 14 15 16 17
000
FTUS43 KDMX 010446 AAA
TAFDSM
TAF AMD
KDSM 010446Z 0105/0124 05006KT P6SM OVC027
     FM010900 VRB04KT 5SM BR OVC008
     FM011500 36006KT P6SM SCT009 OVC020=

USA.gov is the U.S. government's official web portal to all federal, state and local government web resources and services.